sensor_id;sensor_type;location;lat;lon;timestamp;P1;durP1;ratioP1;P2;durP2;ratioP2
31798;SDS011;18374;51.136;3.502;2023-04-01T00:01:00;27.45;;;7.07;;
31798;SDS011;18374;51.136;3.502;2023-04-01T00:03:29;20.67;;;5.97;;
31798;SDS011;18374;51.136;3.502;2023-04-01T00:05:58;20.30;;;5.32;;
31798;SDS011;18374;51.136;3.502;2023-04-01T00:08:27;22.55;;;6.75;;
31798;SDS011;18374;51.136;3.502;2023-04-01T00:10:55;24.13;;;5.80;;
31798;SDS011;18374;51.136;3.502;2023-04-01T00:13:24;21.75;;;5.60;;
31798;SDS011;18374;51.136;3.502;2023-04-01T00:15:53;23.80;;;5.82;;
31798;SDS011;18374;51.136;3.502;2023-04-01T00:18:23;27.20;;;5.40;;
31798;SDS011;18374;51.136;3.502;2023-04-01T00:20:52;22.92;;;5.25;;
31798;SDS011;18374;51.136;3.502;2023-04-01T00:23:20;19.67;;;4.93;;
31798;SDS011;18374;51.136;3.502;2023-04-01T00:25:48;18.70;;;4.50;;
31798;SDS011;18374;51.136;3.502;2023-04-01T00:28:16;24.38;;;5.20;;
31798;SDS011;18374;51.136;3.502;2023-04-01T00:30:47;25.15;;;4.47;;
31798;SDS011;18374;51.136;3.502;2023-04-01T00:33:15;16.50;;;4.07;;
31798;SDS011;18374;51.136;3.502;2023-04-01T00:35:43;16.90;;;4.75;;
31798;SDS011;18374;51.136;3.502;2023-04-01T00:38:12;19.30;;;5.25;;
31798;SDS011;18374;51.136;3.502;2023-04-01T00:40:41;20.13;;;6.13;;
31798;SDS011;18374;51.136;3.502;2023-04-01T00:43:15;16.35;;;6.45;;
31798;SDS011;18374;51.136;3.502;2023-04-01T00:45:48;21.67;;;6.80;;
31798;SDS011;18374;51.136;3.502;2023-04-01T00:48:17;16.63;;;6.05;;
31798;SDS011;18374;51.136;3.502;2023-04-01T00:50:53;21.92;;;6.53;;
31798;SDS011;18374;51.136;3.502;2023-04-01T00:53:26;23.75;;;5.93;;
31798;SDS011;18374;51.136;3.502;2023-04-01T00:56:01;17.25;;;6.13;;
31798;SDS011;18374;51.136;3.502;2023-04-01T00:58:35;28.50;;;6.55;;
31798;SDS011;18374;51.136;3.502;2023-04-01T01:01:07;34.60;;;6.72;;
31798;SDS011;18374;51.136;3.502;2023-04-01T01:03:36;25.55;;;6.35;;
31798;SDS011;18374;51.136;3.502;2023-04-01T01:17:36;24.80;;;6.10;;
31798;SDS011;18374;51.136;3.502;2023-04-01T01:35:54;13.38;;;4.57;;
31798;SDS011;18374;51.136;3.502;2023-04-01T01:38:26;20.38;;;5.18;;
31798;SDS011;18374;51.136;3.502;2023-04-01T01:41:00;20.30;;;5.83;;
31798;SDS011;18374;51.136;3.502;2023-04-01T01:43:33;21.85;;;5.45;;
31798;SDS011;18374;51.136;3.502;2023-04-01T01:46:09;23.20;;;6.03;;
31798;SDS011;18374;51.136;3.502;2023-04-01T01:51:12;19.65;;;6.05;;
31798;SDS011;18374;51.136;3.502;2023-04-01T01:53:40;27.45;;;6.47;;
31798;SDS011;18374;51.136;3.502;2023-04-01T01:56:09;21.05;;;6.55;;
31798;SDS011;18374;51.136;3.502;2023-04-01T01:58:42;25.08;;;6.65;;
31798;SDS011;18374;51.136;3.502;2023-04-01T02:01:20;20.60;;;6.72;;
31798;SDS011;18374;51.136;3.502;2023-04-01T02:03:56;19.80;;;7.40;;
31798;SDS011;18374;51.136;3.502;2023-04-01T02:06:28;22.20;;;6.85;;
31798;SDS011;18374;51.136;3.502;2023-04-01T02:09:00;31.50;;;7.47;;
31798;SDS011;18374;51.136;3.502;2023-04-01T02:11:43;22.58;;;7.63;;
31798;SDS011;18374;51.136;3.502;2023-04-01T02:14:26;23.15;;;7.15;;
31798;SDS011;18374;51.136;3.502;2023-04-01T02:17:10;30.00;;;8.13;;
31798;SDS011;18374;51.136;3.502;2023-04-01T02:19:46;30.33;;;8.18;;
31798;SDS011;18374;51.136;3.502;2023-04-01T02:22:28;26.35;;;7.65;;
31798;SDS011;18374;51.136;3.502;2023-04-01T02:25:01;28.95;;;7.50;;
31798;SDS011;18374;51.136;3.502;2023-04-01T02:27:35;23.45;;;7.68;;
31798;SDS011;18374;51.136;3.502;2023-04-01T02:30:04;24.33;;;7.72;;
31798;SDS011;18374;51.136;3.502;2023-04-01T02:32:34;21.02;;;8.05;;
31798;SDS011;18374;51.136;3.502;2023-04-01T02:35:06;28.48;;;6.95;;
31798;SDS011;18374;51.136;3.502;2023-04-01T02:37:38;21.10;;;6.95;;
31798;SDS011;18374;51.136;3.502;2023-04-01T02:40:11;23.02;;;7.10;;
31798;SDS011;18374;51.136;3.502;2023-04-01T02:42:41;20.50;;;7.70;;
31798;SDS011;18374;51.136;3.502;2023-04-01T02:45:09;30.05;;;9.20;;
31798;SDS011;18374;51.136;3.502;2023-04-01T02:47:38;28.13;;;7.47;;
31798;SDS011;18374;51.136;3.502;2023-04-01T02:50:07;28.02;;;8.63;;
31798;SDS011;18374;51.136;3.502;2023-04-01T02:52:35;22.13;;;8.23;;
31798;SDS011;18374;51.136;3.502;2023-04-01T02:55:03;26.85;;;8.15;;
31798;SDS011;18374;51.136;3.502;2023-04-01T02:57:33;27.02;;;8.52;;
31798;SDS011;18374;51.136;3.502;2023-04-01T03:00:00;24.98;;;7.60;;
31798;SDS011;18374;51.136;3.502;2023-04-01T03:02:30;27.00;;;7.18;;
31798;SDS011;18374;51.136;3.502;2023-04-01T03:04:57;18.67;;;6.45;;
31798;SDS011;18374;51.136;3.502;2023-04-01T03:07:25;15.75;;;6.30;;
31798;SDS011;18374;51.136;3.502;2023-04-01T03:09:53;13.70;;;6.47;;
31798;SDS011;18374;51.136;3.502;2023-04-01T03:12:21;11.05;;;4.50;;
31798;SDS011;18374;51.136;3.502;2023-04-01T03:14:51;12.45;;;5.38;;
31798;SDS011;18374;51.136;3.502;2023-04-01T03:17:18;11.98;;;4.88;;
31798;SDS011;18374;51.136;3.502;2023-04-01T03:19:46;15.73;;;5.15;;
31798;SDS011;18374;51.136;3.502;2023-04-01T03:22:14;10.63;;;5.78;;
31798;SDS011;18374;51.136;3.502;2023-04-01T03:24:42;10.25;;;4.93;;
31798;SDS011;18374;51.136;3.502;2023-04-01T03:27:12;14.77;;;5.97;;
31798;SDS011;18374;51.136;3.502;2023-04-01T03:29:39;11.90;;;4.88;;
31798;SDS011;18374;51.136;3.502;2023-04-01T03:32:08;12.25;;;4.90;;
31798;SDS011;18374;51.136;3.502;2023-04-01T03:34:36;10.10;;;4.00;;
31798;SDS011;18374;51.136;3.502;2023-04-01T03:37:04;11.10;;;4.75;;
31798;SDS011;18374;51.136;3.502;2023-04-01T03:39:32;12.98;;;5.10;;
31798;SDS011;18374;51.136;3.502;2023-04-01T03:42:00;10.38;;;4.93;;
31798;SDS011;18374;51.136;3.502;2023-04-01T03:44:31;11.13;;;5.85;;
31798;SDS011;18374;51.136;3.502;2023-04-01T03:47:00;12.55;;;6.05;;
31798;SDS011;18374;51.136;3.502;2023-04-01T03:49:28;12.38;;;5.65;;
31798;SDS011;18374;51.136;3.502;2023-04-01T03:51:56;14.27;;;5.25;;
31798;SDS011;18374;51.136;3.502;2023-04-01T03:54:24;10.63;;;4.60;;
31798;SDS011;18374;51.136;3.502;2023-04-01T03:56:52;13.27;;;5.82;;
31798;SDS011;18374;51.136;3.502;2023-04-01T03:59:19;12.00;;;5.70;;
31798;SDS011;18374;51.136;3.502;2023-04-01T04:01:48;10.32;;;5.57;;
31798;SDS011;18374;51.136;3.502;2023-04-01T04:04:16;16.83;;;6.80;;
31798;SDS011;18374;51.136;3.502;2023-04-01T04:06:45;9.95;;;5.10;;
31798;SDS011;18374;51.136;3.502;2023-04-01T04:09:12;12.80;;;4.78;;
31798;SDS011;18374;51.136;3.502;2023-04-01T04:11:40;12.05;;;5.35;;
31798;SDS011;18374;51.136;3.502;2023-04-01T04:14:08;11.65;;;4.43;;
31798;SDS011;18374;51.136;3.502;2023-04-01T04:16:36;12.00;;;4.22;;
31798;SDS011;18374;51.136;3.502;2023-04-01T04:19:04;11.63;;;4.97;;
31798;SDS011;18374;51.136;3.502;2023-04-01T04:21:32;11.82;;;5.57;;
31798;SDS011;18374;51.136;3.502;2023-04-01T04:24:01;15.63;;;6.70;;
31798;SDS011;18374;51.136;3.502;2023-04-01T04:26:49;18.10;;;6.75;;
31798;SDS011;18374;51.136;3.502;2023-04-01T04:29:17;15.15;;;7.82;;
31798;SDS011;18374;51.136;3.502;2023-04-01T04:31:46;20.35;;;7.55;;
31798;SDS011;18374;51.136;3.502;2023-04-01T04:34:14;23.08;;;8.38;;
31798;SDS011;18374;51.136;3.502;2023-04-01T04:36:42;26.48;;;9.95;;
31798;SDS011;18374;51.136;3.502;2023-04-01T04:39:10;25.55;;;9.32;;
31798;SDS011;18374;51.136;3.502;2023-04-01T04:41:40;27.73;;;8.75;;
31798;SDS011;18374;51.136;3.502;2023-04-01T04:44:08;19.48;;;8.25;;
31798;SDS011;18374;51.136;3.502;2023-04-01T04:46:36;19.00;;;7.97;;
31798;SDS011;18374;51.136;3.502;2023-04-01T04:49:13;22.17;;;7.85;;
31798;SDS011;18374;51.136;3.502;2023-04-01T04:51:41;24.45;;;8.57;;
31798;SDS011;18374;51.136;3.502;2023-04-01T04:54:09;20.40;;;7.75;;
31798;SDS011;18374;51.136;3.502;2023-04-01T04:56:50;23.65;;;8.35;;
31798;SDS011;18374;51.136;3.502;2023-04-01T04:59:21;20.98;;;7.65;;
31798;SDS011;18374;51.136;3.502;2023-04-01T05:02:17;22.35;;;8.13;;
31798;SDS011;18374;51.136;3.502;2023-04-01T05:04:46;18.67;;;7.97;;
31798;SDS011;18374;51.136;3.502;2023-04-01T05:07:14;15.15;;;6.60;;
31798;SDS011;18374;51.136;3.502;2023-04-01T05:09:42;11.20;;;5.80;;
31798;SDS011;18374;51.136;3.502;2023-04-01T05:12:13;16.30;;;6.35;;
31798;SDS011;18374;51.136;3.502;2023-04-01T05:15:07;21.70;;;6.55;;
31798;SDS011;18374;51.136;3.502;2023-04-01T05:17:35;14.32;;;6.40;;
31798;SDS011;18374;51.136;3.502;2023-04-01T05:20:04;11.68;;;5.53;;
31798;SDS011;18374;51.136;3.502;2023-04-01T05:22:33;14.10;;;5.68;;
31798;SDS011;18374;51.136;3.502;2023-04-01T05:25:00;10.02;;;5.43;;
31798;SDS011;18374;51.136;3.502;2023-04-01T05:27:28;9.82;;;5.28;;
31798;SDS011;18374;51.136;3.502;2023-04-01T05:29:56;13.90;;;4.50;;
31798;SDS011;18374;51.136;3.502;2023-04-01T05:32:40;14.80;;;4.78;;
31798;SDS011;18374;51.136;3.502;2023-04-01T05:35:08;10.60;;;4.85;;
31798;SDS011;18374;51.136;3.502;2023-04-01T05:37:37;15.48;;;4.90;;
31798;SDS011;18374;51.136;3.502;2023-04-01T05:40:05;12.45;;;5.65;;
31798;SDS011;18374;51.136;3.502;2023-04-01T05:42:34;13.60;;;5.45;;
31798;SDS011;18374;51.136;3.502;2023-04-01T05:45:04;9.13;;;4.63;;
31798;SDS011;18374;51.136;3.502;2023-04-01T05:48:05;13.80;;;4.78;;
31798;SDS011;18374;51.136;3.502;2023-04-01T05:50:39;11.95;;;4.22;;
31798;SDS011;18374;51.136;3.502;2023-04-01T05:53:10;6.90;;;3.80;;
31798;SDS011;18374;51.136;3.502;2023-04-01T05:55:41;8.75;;;4.28;;
31798;SDS011;18374;51.136;3.502;2023-04-01T05:58:09;11.13;;;3.63;;
31798;SDS011;18374;51.136;3.502;2023-04-01T06:00:39;6.65;;;3.72;;
31798;SDS011;18374;51.136;3.502;2023-04-01T06:03:07;16.88;;;3.42;;
31798;SDS011;18374;51.136;3.502;2023-04-01T06:05:44;10.10;;;3.90;;
31798;SDS011;18374;51.136;3.502;2023-04-01T06:08:16;10.10;;;4.30;;
31798;SDS011;18374;51.136;3.502;2023-04-01T06:37:25;2.83;;;1.70;;
31798;SDS011;18374;51.136;3.502;2023-04-01T06:43:06;6.25;;;1.70;;
31798;SDS011;18374;51.136;3.502;2023-04-01T06:49:51;9.95;;;2.20;;
31798;SDS011;18374;51.136;3.502;2023-04-01T06:53:20;5.82;;;2.20;;
31798;SDS011;18374;51.136;3.502;2023-04-01T06:56:09;5.15;;;1.90;;
31798;SDS011;18374;51.136;3.502;2023-04-01T06:59:05;5.18;;;2.67;;
31798;SDS011;18374;51.136;3.502;2023-04-01T07:01:45;4.65;;;1.88;;
31798;SDS011;18374;51.136;3.502;2023-04-01T07:04:20;8.35;;;2.13;;
31798;SDS011;18374;51.136;3.502;2023-04-01T07:10:17;5.20;;;2.30;;
31798;SDS011;18374;51.136;3.502;2023-04-01T07:13:33;5.82;;;2.03;;
31798;SDS011;18374;51.136;3.502;2023-04-01T07:16:17;5.13;;;2.13;;
31798;SDS011;18374;51.136;3.502;2023-04-01T07:18:58;4.10;;;1.90;;
31798;SDS011;18374;51.136;3.502;2023-04-01T07:21:55;6.00;;;1.98;;
31798;SDS011;18374;51.136;3.502;2023-04-01T07:25:02;7.60;;;2.30;;
31798;SDS011;18374;51.136;3.502;2023-04-01T07:27:43;6.55;;;2.28;;
31798;SDS011;18374;51.136;3.502;2023-04-01T07:30:20;7.57;;;2.92;;
31798;SDS011;18374;51.136;3.502;2023-04-01T07:32:59;7.18;;;2.45;;
31798;SDS011;18374;51.136;3.502;2023-04-01T07:35:39;11.02;;;2.95;;
31798;SDS011;18374;51.136;3.502;2023-04-01T07:38:19;4.13;;;2.20;;
31798;SDS011;18374;51.136;3.502;2023-04-01T07:44:10;10.40;;;2.65;;
31798;SDS011;18374;51.136;3.502;2023-04-01T07:47:19;5.85;;;2.40;;
31798;SDS011;18374;51.136;3.502;2023-04-01T07:50:11;7.07;;;2.70;;
31798;SDS011;18374;51.136;3.502;2023-04-01T08:07:38;6.97;;;3.05;;
31798;SDS011;18374;51.136;3.502;2023-04-01T08:20:27;7.93;;;3.20;;
31798;SDS011;18374;51.136;3.502;2023-04-01T08:26:06;5.38;;;2.40;;
31798;SDS011;18374;51.136;3.502;2023-04-01T08:29:18;7.10;;;2.25;;
31798;SDS011;18374;51.136;3.502;2023-04-01T08:32:06;6.45;;;2.53;;
31798;SDS011;18374;51.136;3.502;2023-04-01T08:34:41;11.25;;;2.17;;
31798;SDS011;18374;51.136;3.502;2023-04-01T08:37:25;8.73;;;2.38;;
31798;SDS011;18374;51.136;3.502;2023-04-01T08:40:01;12.23;;;2.05;;
31798;SDS011;18374;51.136;3.502;2023-04-01T08:54:34;2.38;;;1.33;;
31798;SDS011;18374;51.136;3.502;2023-04-01T08:57:31;4.18;;;1.55;;
31798;SDS011;18374;51.136;3.502;2023-04-01T09:00:53;5.45;;;1.60;;
31798;SDS011;18374;51.136;3.502;2023-04-01T09:03:43;3.72;;;1.45;;
31798;SDS011;18374;51.136;3.502;2023-04-01T09:09:40;5.93;;;2.15;;
31798;SDS011;18374;51.136;3.502;2023-04-01T09:16:08;4.00;;;1.80;;
31798;SDS011;18374;51.136;3.502;2023-04-01T09:21:50;2.35;;;1.42;;
31798;SDS011;18374;51.136;3.502;2023-04-01T09:24:46;3.05;;;1.40;;
31798;SDS011;18374;51.136;3.502;2023-04-01T09:30:58;3.63;;;1.70;;
31798;SDS011;18374;51.136;3.502;2023-04-01T09:37:02;4.72;;;1.50;;
31798;SDS011;18374;51.136;3.502;2023-04-01T10:10:37;2.72;;;0.70;;
31798;SDS011;18374;51.136;3.502;2023-04-01T10:36:03;2.05;;;1.10;;
31798;SDS011;18374;51.136;3.502;2023-04-01T10:45:46;1.90;;;1.20;;
31798;SDS011;18374;51.136;3.502;2023-04-01T10:48:42;1.85;;;1.20;;
31798;SDS011;18374;51.136;3.502;2023-04-01T10:54:40;5.53;;;1.80;;
31798;SDS011;18374;51.136;3.502;2023-04-01T10:58:10;3.50;;;1.65;;
31798;SDS011;18374;51.136;3.502;2023-04-01T11:01:33;6.25;;;1.73;;
31798;SDS011;18374;51.136;3.502;2023-04-01T11:17:53;7.68;;;2.60;;
31798;SDS011;18374;51.136;3.502;2023-04-01T11:24:03;7.25;;;2.58;;
31798;SDS011;18374;51.136;3.502;2023-04-01T11:31:09;10.25;;;2.85;;
31798;SDS011;18374;51.136;3.502;2023-04-01T11:34:01;10.63;;;2.38;;
31798;SDS011;18374;51.136;3.502;2023-04-01T11:40:35;6.53;;;2.30;;
31798;SDS011;18374;51.136;3.502;2023-04-01T11:46:47;4.85;;;2.42;;
31798;SDS011;18374;51.136;3.502;2023-04-01T11:50:11;5.00;;;2.15;;
31798;SDS011;18374;51.136;3.502;2023-04-01T11:57:12;4.93;;;2.83;;
31798;SDS011;18374;51.136;3.502;2023-04-01T12:03:01;6.40;;;2.20;;
31798;SDS011;18374;51.136;3.502;2023-04-01T12:06:25;14.50;;;2.20;;
31798;SDS011;18374;51.136;3.502;2023-04-01T12:15:52;5.57;;;1.42;;
31798;SDS011;18374;51.136;3.502;2023-04-01T12:18:38;7.82;;;1.67;;
31798;SDS011;18374;51.136;3.502;2023-04-01T12:21:37;3.47;;;1.30;;
31798;SDS011;18374;51.136;3.502;2023-04-01T12:45:35;3.13;;;1.40;;
31798;SDS011;18374;51.136;3.502;2023-04-01T13:15:17;6.18;;;1.20;;
31798;SDS011;18374;51.136;3.502;2023-04-01T13:18:19;6.28;;;1.10;;
31798;SDS011;18374;51.136;3.502;2023-04-01T13:21:19;2.63;;;1.13;;
31798;SDS011;18374;51.136;3.502;2023-04-01T13:27:39;5.93;;;0.80;;
31798;SDS011;18374;51.136;3.502;2023-04-01T13:39:29;5.65;;;1.17;;
31798;SDS011;18374;51.136;3.502;2023-04-01T13:45:02;3.80;;;1.00;;
31798;SDS011;18374;51.136;3.502;2023-04-01T13:57:27;4.70;;;1.40;;
31798;SDS011;18374;51.136;3.502;2023-04-01T14:04:03;2.92;;;0.95;;
31798;SDS011;18374;51.136;3.502;2023-04-01T14:07:23;4.63;;;1.13;;
31798;SDS011;18374;51.136;3.502;2023-04-01T14:13:18;1.98;;;1.30;;
31798;SDS011;18374;51.136;3.502;2023-04-01T14:45:02;2.95;;;1.00;;
31798;SDS011;18374;51.136;3.502;2023-04-01T14:48:32;6.25;;;1.67;;
31798;SDS011;18374;51.136;3.502;2023-04-01T14:50:41;5.80;;;1.70;;
31798;SDS011;18374;51.136;3.502;2023-04-01T14:53:22;3.40;;;1.67;;
31798;SDS011;18374;51.136;3.502;2023-04-01T14:55:56;4.70;;;1.65;;
31798;SDS011;18374;51.136;3.502;2023-04-01T15:01:33;5.53;;;1.30;;
31798;SDS011;18374;51.136;3.502;2023-04-01T15:04:20;3.65;;;1.35;;
31798;SDS011;18374;51.136;3.502;2023-04-01T15:10:05;5.03;;;1.63;;
31798;SDS011;18374;51.136;3.502;2023-04-01T15:15:48;7.90;;;1.80;;
31798;SDS011;18374;51.136;3.502;2023-04-01T15:19:05;2.22;;;1.40;;
31798;SDS011;18374;51.136;3.502;2023-04-01T15:22:34;3.00;;;1.42;;
31798;SDS011;18374;51.136;3.502;2023-04-01T15:25:13;9.93;;;1.88;;
31798;SDS011;18374;51.136;3.502;2023-04-01T15:28:30;4.30;;;1.60;;
31798;SDS011;18374;51.136;3.502;2023-04-01T15:31:49;5.05;;;1.77;;
31798;SDS011;18374;51.136;3.502;2023-04-01T15:34:38;5.30;;;2.03;;
31798;SDS011;18374;51.136;3.502;2023-04-01T15:38:03;14.07;;;3.00;;
31798;SDS011;18374;51.136;3.502;2023-04-01T15:40:42;8.13;;;1.55;;
31798;SDS011;18374;51.136;3.502;2023-04-01T15:43:40;10.77;;;1.88;;
31798;SDS011;18374;51.136;3.502;2023-04-01T15:57:52;11.20;;;2.17;;
31798;SDS011;18374;51.136;3.502;2023-04-01T16:06:31;5.57;;;2.00;;
31798;SDS011;18374;51.136;3.502;2023-04-01T16:11:57;3.08;;;1.75;;
31798;SDS011;18374;51.136;3.502;2023-04-01T16:20:43;4.40;;;1.80;;
31798;SDS011;18374;51.136;3.502;2023-04-01T16:23:42;5.85;;;2.30;;
31798;SDS011;18374;51.136;3.502;2023-04-01T16:26:26;4.00;;;2.30;;
31798;SDS011;18374;51.136;3.502;2023-04-01T16:43:43;5.38;;;2.80;;
31798;SDS011;18374;51.136;3.502;2023-04-01T16:46:34;6.25;;;2.58;;
31798;SDS011;18374;51.136;3.502;2023-04-01T17:00:53;2.50;;;1.73;;
31798;SDS011;18374;51.136;3.502;2023-04-01T17:12:01;3.97;;;1.85;;
31798;SDS011;18374;51.136;3.502;2023-04-01T17:14:54;9.95;;;2.80;;
31798;SDS011;18374;51.136;3.502;2023-04-01T17:17:48;5.88;;;3.20;;
31798;SDS011;18374;51.136;3.502;2023-04-01T17:42:09;15.93;;;4.78;;
31798;SDS011;18374;51.136;3.502;2023-04-01T17:45:24;17.85;;;5.53;;
31798;SDS011;18374;51.136;3.502;2023-04-01T17:59:33;14.52;;;5.80;;
31798;SDS011;18374;51.136;3.502;2023-04-01T18:04:57;26.52;;;5.90;;
31798;SDS011;18374;51.136;3.502;2023-04-01T18:16:17;20.42;;;6.00;;
31798;SDS011;18374;51.136;3.502;2023-04-01T18:33:30;22.70;;;8.32;;
31798;SDS011;18374;51.136;3.502;2023-04-01T18:51:20;26.73;;;9.77;;
31798;SDS011;18374;51.136;3.502;2023-04-01T18:54:11;24.27;;;9.23;;
31798;SDS011;18374;51.136;3.502;2023-04-01T19:07:54;26.13;;;8.95;;
31798;SDS011;18374;51.136;3.502;2023-04-01T19:27:35;33.38;;;10.73;;
31798;SDS011;18374;51.136;3.502;2023-04-01T19:30:16;27.33;;;9.00;;
31798;SDS011;18374;51.136;3.502;2023-04-01T19:56:07;35.08;;;11.32;;
31798;SDS011;18374;51.136;3.502;2023-04-01T20:04:44;38.90;;;10.98;;
31798;SDS011;18374;51.136;3.502;2023-04-01T20:07:27;32.97;;;11.95;;
31798;SDS011;18374;51.136;3.502;2023-04-01T20:16:08;25.05;;;12.00;;
31798;SDS011;18374;51.136;3.502;2023-04-01T20:18:49;32.40;;;12.27;;
31798;SDS011;18374;51.136;3.502;2023-04-01T20:21:30;34.53;;;11.65;;
31798;SDS011;18374;51.136;3.502;2023-04-01T20:26:43;40.13;;;12.55;;
31798;SDS011;18374;51.136;3.502;2023-04-01T20:41:36;43.88;;;13.55;;
31798;SDS011;18374;51.136;3.502;2023-04-01T20:53:04;38.25;;;12.80;;
31798;SDS011;18374;51.136;3.502;2023-04-01T20:55:58;30.00;;;12.77;;
31798;SDS011;18374;51.136;3.502;2023-04-01T21:01:54;44.92;;;13.50;;
31798;SDS011;18374;51.136;3.502;2023-04-01T21:08:06;43.55;;;15.20;;
31798;SDS011;18374;51.136;3.502;2023-04-01T21:14:41;46.25;;;15.57;;
31798;SDS011;18374;51.136;3.502;2023-04-01T21:20:30;51.22;;;13.57;;
31798;SDS011;18374;51.136;3.502;2023-04-01T21:29:38;55.10;;;13.63;;
31798;SDS011;18374;51.136;3.502;2023-04-01T21:45:27;53.72;;;16.35;;
31798;SDS011;18374;51.136;3.502;2023-04-01T21:48:16;61.65;;;15.25;;
31798;SDS011;18374;51.136;3.502;2023-04-01T22:06:05;58.33;;;14.90;;
31798;SDS011;18374;51.136;3.502;2023-04-01T22:17:16;48.17;;;14.88;;
31798;SDS011;18374;51.136;3.502;2023-04-01T22:23:14;47.85;;;15.05;;
31798;SDS011;18374;51.136;3.502;2023-04-01T22:37:02;49.13;;;14.43;;
31798;SDS011;18374;51.136;3.502;2023-04-01T22:48:31;41.83;;;15.77;;
31798;SDS011;18374;51.136;3.502;2023-04-01T22:51:15;47.25;;;14.95;;
31798;SDS011;18374;51.136;3.502;2023-04-01T22:56:51;44.38;;;14.38;;
31798;SDS011;18374;51.136;3.502;2023-04-01T23:01:58;44.58;;;15.18;;
31798;SDS011;18374;51.136;3.502;2023-04-01T23:04:45;41.13;;;13.25;;
31798;SDS011;18374;51.136;3.502;2023-04-01T23:10:17;29.70;;;13.73;;
31798;SDS011;18374;51.136;3.502;2023-04-01T23:12:55;39.20;;;14.48;;
31798;SDS011;18374;51.136;3.502;2023-04-01T23:15:26;40.60;;;16.15;;
31798;SDS011;18374;51.136;3.502;2023-04-01T23:20:58;37.67;;;16.55;;
31798;SDS011;18374;51.136;3.502;2023-04-01T23:29:21;42.17;;;16.83;;
31798;SDS011;18374;51.136;3.502;2023-04-01T23:32:02;36.55;;;16.10;;
31798;SDS011;18374;51.136;3.502;2023-04-01T23:34:32;40.42;;;16.30;;
31798;SDS011;18374;51.136;3.502;2023-04-01T23:37:03;54.00;;;17.90;;
31798;SDS011;18374;51.136;3.502;2023-04-01T23:39:37;48.17;;;17.08;;
31798;SDS011;18374;51.136;3.502;2023-04-01T23:42:15;38.40;;;17.05;;
31798;SDS011;18374;51.136;3.502;2023-04-01T23:44:58;37.08;;;14.98;;
31798;SDS011;18374;51.136;3.502;2023-04-01T23:50:14;38.63;;;16.83;;
31798;SDS011;18374;51.136;3.502;2023-04-01T23:53:33;50.85;;;18.98;;
31798;SDS011;18374;51.136;3.502;2023-04-01T23:55:46;42.10;;;18.65;;
31798;SDS011;18374;51.136;3.502;2023-04-01T23:58:20;39.42;;;19.85;;
